sensor_id;sensor_type;location;lat;lon;timestamp;P1;P2;P0
76043;PMS7003;64740;34.694;33.088;2023-12-28T00:01:49;12.4;10.8;6.6
76043;PMS7003;64740;34.694;33.088;2023-12-28T00:07:21;12.2;10.3;6.3
76043;PMS7003;64740;34.694;33.088;2023-12-28T00:11:55;12.3;10.9;7
76043;PMS7003;64740;34.694;33.088;2023-12-28T00:16:59;11.3;10.3;6.7
76043;PMS7003;64740;34.694;33.088;2023-12-28T00:21:59;12.6;9.9;6.6
76043;PMS7003;64740;34.694;33.088;2023-12-28T00:27:23;11.3;9.3;5.9
76043;PMS7003;64740;34.694;33.088;2023-12-28T00:32:19;9.8;8.5;5.6
76043;PMS7003;64740;34.694;33.088;2023-12-28T00:36:59;11.6;9.7;5.9
76043;PMS7003;64740;34.694;33.088;2023-12-28T00:41:59;10.3;9.2;6
76043;PMS7003;64740;34.694;33.088;2023-12-28T00:47:19;11.3;9.5;6.1
76043;PMS7003;64740;34.694;33.088;2023-12-28T00:52:23;9.2;7.9;5.2
76043;PMS7003;64740;34.694;33.088;2023-12-28T00:56:39;9.9;8.7;5.8
76043;PMS7003;64740;34.694;33.088;2023-12-28T01:02:23;11.5;9.5;5.8
76043;PMS7003;64740;34.694;33.088;2023-12-28T01:07:09;11;9.1;5.3
76043;PMS7003;64740;34.694;33.088;2023-12-28T01:12:05;9.4;8.5;5.6
76043;PMS7003;64740;34.694;33.088;2023-12-28T01:16:39;9.1;7.7;4.9
76043;PMS7003;64740;34.694;33.088;2023-12-28T01:21:59;10;8.3;5
76043;PMS7003;64740;34.694;33.088;2023-12-28T01:27:19;9.3;7.6;4.9
76043;PMS7003;64740;34.694;33.088;2023-12-28T01:31:57;9.4;7.7;5
76043;PMS7003;64740;34.694;33.088;2023-12-28T01:36:39;10;7.9;5.2
76043;PMS7003;64740;34.694;33.088;2023-12-28T01:42:23;9.4;7.8;5
76043;PMS7003;64740;34.694;33.088;2023-12-28T01:46:59;9.6;7.5;4.8
76043;PMS7003;64740;34.694;33.088;2023-12-28T01:51:39;9.3;7.9;4.9
76043;PMS7003;64740;34.694;33.088;2023-12-28T01:56:39;7.8;6.2;3.8
76043;PMS7003;64740;34.694;33.088;2023-12-28T02:02:09;9.3;7.6;5
76043;PMS7003;64740;34.694;33.088;2023-12-28T02:06:39;8.9;7.7;4.9
76043;PMS7003;64740;34.694;33.088;2023-12-28T02:11:49;9.3;7.5;4.8
76043;PMS7003;64740;34.694;33.088;2023-12-28T02:17:22;7.9;7.2;4.5
76043;PMS7003;64740;34.694;33.088;2023-12-28T02:22:09;7.9;6.4;4.1
76043;PMS7003;64740;34.694;33.088;2023-12-28T02:26:53;8.2;7;4.3
76043;PMS7003;64740;34.694;33.088;2023-12-28T02:31:40;7.6;6.7;3.9
76043;PMS7003;64740;34.694;33.088;2023-12-28T02:37:01;8.9;7.4;4.6
76043;PMS7003;64740;34.694;33.088;2023-12-28T02:41:39;9.1;7.9;4.9
76043;PMS7003;64740;34.694;33.088;2023-12-28T02:47:19;9.3;7.4;4.7
76043;PMS7003;64740;34.694;33.088;2023-12-28T02:51:59;8;7.3;4.2
76043;PMS7003;64740;34.694;33.088;2023-12-28T02:56:59;7.1;6;3.6
76043;PMS7003;64740;34.694;33.088;2023-12-28T03:02:23;9.2;7.4;4.6
76043;PMS7003;64740;34.694;33.088;2023-12-28T03:07:11;8.8;6.8;4.5
76043;PMS7003;64740;34.694;33.088;2023-12-28T03:11:39;8.3;7.1;4.7
76043;PMS7003;64740;34.694;33.088;2023-12-28T03:17:11;8.3;6.9;4.4
76043;PMS7003;64740;34.694;33.088;2023-12-28T03:22:23;7;6.3;4
76043;PMS7003;64740;34.694;33.088;2023-12-28T03:27:21;7.6;6.3;4
76043;PMS7003;64740;34.694;33.088;2023-12-28T03:32:23;7.2;6.3;4.3
76043;PMS7003;64740;34.694;33.088;2023-12-28T03:37:09;8.2;7.2;4.4
76043;PMS7003;64740;34.694;33.088;2023-12-28T03:41:39;8.3;7.1;4.5
76043;PMS7003;64740;34.694;33.088;2023-12-28T03:46:39;8.9;7.2;4.5
76043;PMS7003;64740;34.694;33.088;2023-12-28T03:51:50;8.5;7.6;4.7
76043;PMS7003;64740;34.694;33.088;2023-12-28T03:57:19;10.2;7.3;4.5
76043;PMS7003;64740;34.694;33.088;2023-12-28T04:02:09;10.2;8.2;4.9
76043;PMS7003;64740;34.694;33.088;2023-12-28T04:07:13;8.5;7.4;4.5
76043;PMS7003;64740;34.694;33.088;2023-12-28T04:12:23;8.2;7.2;4.6
76043;PMS7003;64740;34.694;33.088;2023-12-28T04:17:09;8.4;7.2;4.2
76043;PMS7003;64740;34.694;33.088;2023-12-28T04:21:59;8;7;3.9
76043;PMS7003;64740;34.694;33.088;2023-12-28T04:27:03;6.5;5.4;3.1
76043;PMS7003;64740;34.694;33.088;2023-12-28T04:32:19;9.7;8.2;4.8
76043;PMS7003;64740;34.694;33.088;2023-12-28T04:37:05;8.5;7.3;4.8
76043;PMS7003;64740;34.694;33.088;2023-12-28T04:41:41;9.8;7.7;4.9
76043;PMS7003;64740;34.694;33.088;2023-12-28T04:46:59;8.6;7.2;4.7
76043;PMS7003;64740;34.694;33.088;2023-12-28T04:51:41;10.2;8.4;5.5
76043;PMS7003;64740;34.694;33.088;2023-12-28T04:57:23;8.7;6.9;4.4
76043;PMS7003;64740;34.694;33.088;2023-12-28T05:02:05;7.9;6.6;4.1
76043;PMS7003;64740;34.694;33.088;2023-12-28T05:06:45;8.6;7.2;4.4
76043;PMS7003;64740;34.694;33.088;2023-12-28T05:12:05;8.3;7.2;4.6
76043;PMS7003;64740;34.694;33.088;2023-12-28T05:17:23;8;6.8;4.3
76043;PMS7003;64740;34.694;33.088;2023-12-28T05:21:39;10;8;5.2
76043;PMS7003;64740;34.694;33.088;2023-12-28T05:26:39;9.4;7.5;4.9
76043;PMS7003;64740;34.694;33.088;2023-12-28T05:31:41;8.8;7.7;4.6
76043;PMS7003;64740;34.694;33.088;2023-12-28T05:37:09;9.3;7.4;4.5
76043;PMS7003;64740;34.694;33.088;2023-12-28T05:41:47;9;7.9;5.1
76043;PMS7003;64740;34.694;33.088;2023-12-28T05:46:59;9.3;7.8;5.1
76043;PMS7003;64740;34.694;33.088;2023-12-28T05:52:23;9.8;7.6;4.5
76043;PMS7003;64740;34.694;33.088;2023-12-28T05:56:55;9.9;7.7;4.7
76043;PMS7003;64740;34.694;33.088;2023-12-28T06:01:42;9.3;8.2;5.1
76043;PMS7003;64740;34.694;33.088;2023-12-28T06:07:21;9.7;7.9;4.9
76043;PMS7003;64740;34.694;33.088;2023-12-28T06:12:05;11.6;9.7;6.4
76043;PMS7003;64740;34.694;33.088;2023-12-28T06:16:39;9.6;8.6;5.5
76043;PMS7003;64740;34.694;33.088;2023-12-28T06:21:39;10.3;8.8;5.7
76043;PMS7003;64740;34.694;33.088;2023-12-28T06:27:09;10.2;8.5;5.7
76043;PMS7003;64740;34.694;33.088;2023-12-28T06:31:57;12.2;9.8;6.2
76043;PMS7003;64740;34.694;33.088;2023-12-28T06:36:57;11.5;10.2;6.4
76043;PMS7003;64740;34.694;33.088;2023-12-28T06:42:19;12.5;10.5;6.5
76043;PMS7003;64740;34.694;33.088;2023-12-28T06:47:07;11.1;9.4;6
76043;PMS7003;64740;34.694;33.088;2023-12-28T06:51:39;14.6;12.8;7.6
76043;PMS7003;64740;34.694;33.088;2023-12-28T06:56:39;12.5;10.8;7.4
76043;PMS7003;64740;34.694;33.088;2023-12-28T07:01:57;20.2;17.2;10.6
76043;PMS7003;64740;34.694;33.088;2023-12-28T07:06:39;16.9;14.4;8.7
76043;PMS7003;64740;34.694;33.088;2023-12-28T07:12:23;16.4;14.5;9
76043;PMS7003;64740;34.694;33.088;2023-12-28T07:16:47;12.4;10.8;7
76043;PMS7003;64740;34.694;33.088;2023-12-28T07:22:09;11.4;9.3;6
76043;PMS7003;64740;34.694;33.088;2023-12-28T07:27:21;13;10.9;7.2
76043;PMS7003;64740;34.694;33.088;2023-12-28T07:31:41;10.4;9;5.8
76043;PMS7003;64740;34.694;33.088;2023-12-28T07:36:51;9.3;8.3;5.2
76043;PMS7003;64740;34.694;33.088;2023-12-28T07:41:49;9.6;8.1;5.5
76043;PMS7003;64740;34.694;33.088;2023-12-28T07:47:21;10.9;8.8;5.6
76043;PMS7003;64740;34.694;33.088;2023-12-28T07:52:21;10.6;8.7;5.6
76043;PMS7003;64740;34.694;33.088;2023-12-28T07:56:57;8.1;6.8;3.9
76043;PMS7003;64740;34.694;33.088;2023-12-28T08:02:23;10.7;8.5;5.2
76043;PMS7003;64740;34.694;33.088;2023-12-28T08:06:39;10.1;8.4;5.1
76043;PMS7003;64740;34.694;33.088;2023-12-28T08:12:23;10.4;8.4;5.3
76043;PMS7003;64740;34.694;33.088;2023-12-28T08:17:11;9.3;7.9;5.3
76043;PMS7003;64740;34.694;33.088;2023-12-28T08:22:21;10.8;8.7;5.4
76043;PMS7003;64740;34.694;33.088;2023-12-28T08:26:59;10.2;8.4;5.4
76043;PMS7003;64740;34.694;33.088;2023-12-28T08:31:41;10.4;9.2;6
76043;PMS7003;64740;34.694;33.088;2023-12-28T08:37:23;10.7;9.2;5.8
76043;PMS7003;64740;34.694;33.088;2023-12-28T08:41:39;10.5;9.4;6.3
76043;PMS7003;64740;34.694;33.088;2023-12-28T08:46:39;10.8;9.1;5.9
76043;PMS7003;64740;34.694;33.088;2023-12-28T08:51:59;10.5;9.6;6
76043;PMS7003;64740;34.694;33.088;2023-12-28T08:57:23;11.6;9.4;5.6
76043;PMS7003;64740;34.694;33.088;2023-12-28T09:01:41;10.5;9.1;6
76043;PMS7003;64740;34.694;33.088;2023-12-28T09:07:11;10.7;9.2;6.2
76043;PMS7003;64740;34.694;33.088;2023-12-28T09:11:45;9.8;8.6;5.8
76043;PMS7003;64740;34.694;33.088;2023-12-28T09:16:45;10.6;9.2;5.8
76043;PMS7003;64740;34.694;33.088;2023-12-28T09:22:05;10.1;8.3;5.4
76043;PMS7003;64740;34.694;33.088;2023-12-28T09:26:57;9.8;8.6;5.4
76043;PMS7003;64740;34.694;33.088;2023-12-28T09:32:09;9.3;8.1;5.1
76043;PMS7003;64740;34.694;33.088;2023-12-28T09:36:41;10.1;8.8;5.7
76043;PMS7003;64740;34.694;33.088;2023-12-28T09:42:23;9.9;8.5;5.5
76043;PMS7003;64740;34.694;33.088;2023-12-28T09:46:51;10.3;8.4;5.1
76043;PMS7003;64740;34.694;33.088;2023-12-28T09:52:01;9.6;8.8;5.6
76043;PMS7003;64740;34.694;33.088;2023-12-28T09:56:59;10.5;8.6;5.5
76043;PMS7003;64740;34.694;33.088;2023-12-28T10:01:57;9.8;8.9;5.8
76043;PMS7003;64740;34.694;33.088;2023-12-28T10:06:47;9.9;8.2;5.6
76043;PMS7003;64740;34.694;33.088;2023-12-28T10:11:39;9.9;8.8;5.4
76043;PMS7003;64740;34.694;33.088;2023-12-28T10:17:19;9.4;8.1;5.2
76043;PMS7003;64740;34.694;33.088;2023-12-28T10:21:57;9.9;8.1;5
76043;PMS7003;64740;34.694;33.088;2023-12-28T10:26:52;10.4;8.6;5.5
76043;PMS7003;64740;34.694;33.088;2023-12-28T10:32:21;9.4;8.2;5.2
76043;PMS7003;64740;34.694;33.088;2023-12-28T10:36:47;10.2;8.6;5.3
76043;PMS7003;64740;34.694;33.088;2023-12-28T10:42:24;8.5;7.9;5
76043;PMS7003;64740;34.694;33.088;2023-12-28T10:47:12;9.8;8.7;5.3
76043;PMS7003;64740;34.694;33.088;2023-12-28T10:52:07;10.4;8.9;5.4
76043;PMS7003;64740;34.694;33.088;2023-12-28T10:56:49;9.1;8.3;5.3
76043;PMS7003;64740;34.694;33.088;2023-12-28T11:02:01;11.3;9.1;5.4
76043;PMS7003;64740;34.694;33.088;2023-12-28T11:07:21;9.9;8.9;5.6
76043;PMS7003;64740;34.694;33.088;2023-12-28T11:12:09;9.7;8.8;5.6
76043;PMS7003;64740;34.694;33.088;2023-12-28T11:16:39;9.5;7.9;5.3
76043;PMS7003;64740;34.694;33.088;2023-12-28T11:22:09;9.9;8.6;5.3
76043;PMS7003;64740;34.694;33.088;2023-12-28T11:26:59;9.6;8.3;5.2
76043;PMS7003;64740;34.694;33.088;2023-12-28T11:31:39;10.4;8.7;5.2
76043;PMS7003;64740;34.694;33.088;2023-12-28T11:36:40;10;8.8;5.6
76043;PMS7003;64740;34.694;33.088;2023-12-28T11:41:59;9.1;8;5.1
76043;PMS7003;64740;34.694;33.088;2023-12-28T11:46:57;9.2;8;5.1
76043;PMS7003;64740;34.694;33.088;2023-12-28T11:52:21;9.3;8.1;5.5
76043;PMS7003;64740;34.694;33.088;2023-12-28T11:57:11;9;7.7;4.9
76043;PMS7003;64740;34.694;33.088;2023-12-28T12:01:57;9;7.7;4.9
76043;PMS7003;64740;34.694;33.088;2023-12-28T12:07:09;8.6;8.1;5.1
76043;PMS7003;64740;34.694;33.088;2023-12-28T12:12:21;9.3;8.3;5.2
76043;PMS7003;64740;34.694;33.088;2023-12-28T12:17:19;9.7;7.6;4.7
76043;PMS7003;64740;34.694;33.088;2023-12-28T12:22:19;9.4;7.7;5
76043;PMS7003;64740;34.694;33.088;2023-12-28T12:27:07;7.2;6;3.7
76043;PMS7003;64740;34.694;33.088;2023-12-28T12:31:47;8.1;6.3;4
76043;PMS7003;64740;34.694;33.088;2023-12-28T12:36:49;8.4;6.8;4.1
76043;PMS7003;64740;34.694;33.088;2023-12-28T12:42:19;8;6.5;4.1
76043;PMS7003;64740;34.694;33.088;2023-12-28T12:47:19;6.4;6.1;4
76043;PMS7003;64740;34.694;33.088;2023-12-28T12:52:06;6.9;6.1;4
76043;PMS7003;64740;34.694;33.088;2023-12-28T12:57:01;7.2;6.3;4.3
76043;PMS7003;64740;34.694;33.088;2023-12-28T13:02:23;7.1;6.2;4
76043;PMS7003;64740;34.694;33.088;2023-12-28T13:06:39;7.9;6.5;4.3
76043;PMS7003;64740;34.694;33.088;2023-12-28T13:11:39;7.6;6.5;4.2
76043;PMS7003;64740;34.694;33.088;2023-12-28T13:16:49;7.8;7.2;4.8
76043;PMS7003;64740;34.694;33.088;2023-12-28T13:22:21;7.8;7.3;4.5
76043;PMS7003;64740;34.694;33.088;2023-12-28T13:27:05;7.8;6.6;4
76043;PMS7003;64740;34.694;33.088;2023-12-28T13:32:09;8.8;7.9;5.4
76043;PMS7003;64740;34.694;33.088;2023-12-28T13:36:57;8.7;6.9;4.6
76043;PMS7003;64740;34.694;33.088;2023-12-28T13:41:57;7.7;6.9;4.6
76043;PMS7003;64740;34.694;33.088;2023-12-28T13:47:19;9.1;7.8;4.9
76043;PMS7003;64740;34.694;33.088;2023-12-28T13:51:45;9.3;7.6;5.2
76043;PMS7003;64740;34.694;33.088;2023-12-28T13:56:47;7.6;6.6;4.4
76043;PMS7003;64740;34.694;33.088;2023-12-28T14:01:45;7.8;7;4
76043;PMS7003;64740;34.694;33.088;2023-12-28T14:07:19;8.5;7.5;4.7
76043;PMS7003;64740;34.694;33.088;2023-12-28T14:11:55;9.5;8.3;4.9
76043;PMS7003;64740;34.694;33.088;2023-12-28T14:16:47;9.8;8.1;5
76043;PMS7003;64740;34.694;33.088;2023-12-28T14:22:05;11.3;8.7;5.4
76043;PMS7003;64740;34.694;33.088;2023-12-28T14:26:58;10.9;9.3;6.3
76043;PMS7003;64740;34.694;33.088;2023-12-28T14:32:05;10.1;8.4;5.4
76043;PMS7003;64740;34.694;33.088;2023-12-28T14:37:09;11.1;9.4;5.8
76043;PMS7003;64740;34.694;33.088;2023-12-28T14:42:19;8.9;7.7;4.6
76043;PMS7003;64740;34.694;33.088;2023-12-28T14:46:47;11.5;9.2;5.9
76043;PMS7003;64740;34.694;33.088;2023-12-28T14:51:45;10.6;8.6;5.5
76043;PMS7003;64740;34.694;33.088;2023-12-28T14:57:21;11.4;9;5.8
76043;PMS7003;64740;34.694;33.088;2023-12-28T15:02:07;12.1;10;6.6
76043;PMS7003;64740;34.694;33.088;2023-12-28T15:06:45;30.2;25.6;15.7
76043;PMS7003;64740;34.694;33.088;2023-12-28T15:11:45;23.9;19.5;12.2
76043;PMS7003;64740;34.694;33.088;2023-12-28T15:17:07;17.4;14.8;9.5
76043;PMS7003;64740;34.694;33.088;2023-12-28T15:22:11;21.2;18.6;11.8
76043;PMS7003;64740;34.694;33.088;2023-12-28T15:26:39;17.8;15.6;9.9
76043;PMS7003;64740;34.694;33.088;2023-12-28T15:32:23;14.4;12.4;7.9
76043;PMS7003;64740;34.694;33.088;2023-12-28T15:36:53;15;12;8.1
76043;PMS7003;64740;34.694;33.088;2023-12-28T15:41:39;17.4;15.1;9
76043;PMS7003;64740;34.694;33.088;2023-12-28T15:46:57;22.7;19.9;12
76043;PMS7003;64740;34.694;33.088;2023-12-28T15:51:39;25.2;20.9;12.9
76043;PMS7003;64740;34.694;33.088;2023-12-28T15:56:53;29;24;15.2
76043;PMS7003;64740;34.694;33.088;2023-12-28T16:01:47;30.6;25.3;16
76043;PMS7003;64740;34.694;33.088;2023-12-28T16:07:13;24.1;20.7;13.1
76043;PMS7003;64740;34.694;33.088;2023-12-28T16:11:41;19.7;17.3;11.1
76043;PMS7003;64740;34.694;33.088;2023-12-28T16:16:41;19.5;16.1;10.4
76043;PMS7003;64740;34.694;33.088;2023-12-28T16:21:49;15.7;13.3;8.2
76043;PMS7003;64740;34.694;33.088;2023-12-28T16:26:59;15.5;13.1;8.8
76043;PMS7003;64740;34.694;33.088;2023-12-28T16:31:45;14.9;13.2;8.5
76043;PMS7003;64740;34.694;33.088;2023-12-28T16:37:21;15.3;13.7;8.8
76043;PMS7003;64740;34.694;33.088;2023-12-28T16:42:23;17.3;15;9.8
76043;PMS7003;64740;34.694;33.088;2023-12-28T16:47:19;17.4;14.7;9.3
76043;PMS7003;64740;34.694;33.088;2023-12-28T16:52:23;15.1;13;8.3
76043;PMS7003;64740;34.694;33.088;2023-12-28T16:56:39;16.9;15.2;9.8
76043;PMS7003;64740;34.694;33.088;2023-12-28T17:01:39;24.9;21.4;13.7
76043;PMS7003;64740;34.694;33.088;2023-12-28T17:07:13;19.2;17.4;11.1
76043;PMS7003;64740;34.694;33.088;2023-12-28T17:12:23;25.8;22.1;14
76043;PMS7003;64740;34.694;33.088;2023-12-28T17:16:57;20.2;17.9;11.6
76043;PMS7003;64740;34.694;33.088;2023-12-28T17:22:11;18.1;15.8;10.1
76043;PMS7003;64740;34.694;33.088;2023-12-28T17:27:23;15.8;13.7;8.7
76043;PMS7003;64740;34.694;33.088;2023-12-28T17:32:01;16.2;13.5;9
76043;PMS7003;64740;34.694;33.088;2023-12-28T17:36:39;16.1;14;8.6
76043;PMS7003;64740;34.694;33.088;2023-12-28T17:41:59;15.7;13.9;8.6
76043;PMS7003;64740;34.694;33.088;2023-12-28T17:47:26;16.1;13.8;8.9
76043;PMS7003;64740;34.694;33.088;2023-12-28T17:51:56;16.5;14;9
76043;PMS7003;64740;34.694;33.088;2023-12-28T17:57:21;18.9;15.7;9.3
76043;PMS7003;64740;34.694;33.088;2023-12-28T18:02:13;20;17.1;11
76043;PMS7003;64740;34.694;33.088;2023-12-28T18:06:39;19;16.4;10.6
76043;PMS7003;64740;34.694;33.088;2023-12-28T18:12:23;17;13.7;8.2
76043;PMS7003;64740;34.694;33.088;2023-12-28T18:16:39;18.9;17.5;11.2
76043;PMS7003;64740;34.694;33.088;2023-12-28T18:21:57;17.4;15.2;10.1
76043;PMS7003;64740;34.694;33.088;2023-12-28T18:26:55;18;15.3;9.8
76043;PMS7003;64740;34.694;33.088;2023-12-28T18:32:21;17;14;8.4
76043;PMS7003;64740;34.694;33.088;2023-12-28T18:36:39;14.7;13;8.4
76043;PMS7003;64740;34.694;33.088;2023-12-28T18:41:39;15.5;12.8;8.4
76043;PMS7003;64740;34.694;33.088;2023-12-28T18:46:57;14.5;11.8;7.6
76043;PMS7003;64740;34.694;33.088;2023-12-28T18:51:59;14.5;12;7.6
76043;PMS7003;64740;34.694;33.088;2023-12-28T18:56:45;13.8;12.1;8
76043;PMS7003;64740;34.694;33.088;2023-12-28T19:02:01;14.6;11.9;7.2
76043;PMS7003;64740;34.694;33.088;2023-12-28T19:07:21;14.9;11.9;7.7
76043;PMS7003;64740;34.694;33.088;2023-12-28T19:11:57;14.4;11.9;7.5
76043;PMS7003;64740;34.694;33.088;2023-12-28T19:16:47;14;12;7.9
76043;PMS7003;64740;34.694;33.088;2023-12-28T19:22:19;13.4;12;7.8
76043;PMS7003;64740;34.694;33.088;2023-12-28T19:27:07;15.1;13.1;8.3
76043;PMS7003;64740;34.694;33.088;2023-12-28T19:31:45;14.3;12.1;8
76043;PMS7003;64740;34.694;33.088;2023-12-28T19:36:39;9.9;9;5.6
76043;PMS7003;64740;34.694;33.088;2023-12-28T19:41:57;12.3;11.4;7.4
76043;PMS7003;64740;34.694;33.088;2023-12-28T19:47:09;13.9;11.7;7.5
76043;PMS7003;64740;34.694;33.088;2023-12-28T19:52:09;13.9;11.7;7.4
76043;PMS7003;64740;34.694;33.088;2023-12-28T19:57:19;13.1;11.3;6.9
76043;PMS7003;64740;34.694;33.088;2023-12-28T20:01:53;12.2;10.4;6.6
76043;PMS7003;64740;34.694;33.088;2023-12-28T20:06:47;12.9;10.3;6.6
76043;PMS7003;64740;34.694;33.088;2023-12-28T20:11:39;12.5;10.5;6.8
76043;PMS7003;64740;34.694;33.088;2023-12-28T20:16:59;12.3;10.2;6.7
76043;PMS7003;64740;34.694;33.088;2023-12-28T20:21:39;12.2;10.1;6.9
76043;PMS7003;64740;34.694;33.088;2023-12-28T20:26:55;11.8;9.9;6.3
76043;PMS7003;64740;34.694;33.088;2023-12-28T20:32:01;12.2;10.5;6.4
76043;PMS7003;64740;34.694;33.088;2023-12-28T20:37:07;11.4;10;6.5
76043;PMS7003;64740;34.694;33.088;2023-12-28T20:42:19;11;9.4;6.1
76043;PMS7003;64740;34.694;33.088;2023-12-28T20:46:41;10.7;9.1;5.7
76043;PMS7003;64740;34.694;33.088;2023-12-28T20:51:39;12.3;10.2;6.2
76043;PMS7003;64740;34.694;33.088;2023-12-28T20:56:47;11.4;9.8;6.6
76043;PMS7003;64740;34.694;33.088;2023-12-28T21:02:21;12.4;10.4;6.7
76043;PMS7003;64740;34.694;33.088;2023-12-28T21:07:21;10.9;9.5;5.8
76043;PMS7003;64740;34.694;33.088;2023-12-28T21:12:19;10.8;8.7;5.9
76043;PMS7003;64740;34.694;33.088;2023-12-28T21:17:19;10.6;9;5.7
76043;PMS7003;64740;34.694;33.088;2023-12-28T21:22:05;11.4;9.5;5.6
76043;PMS7003;64740;34.694;33.088;2023-12-28T21:27:07;9.7;8.5;5.6
76043;PMS7003;64740;34.694;33.088;2023-12-28T21:31:41;10.6;8.5;5.7
76043;PMS7003;64740;34.694;33.088;2023-12-28T21:37:09;9.6;8;5.4
76043;PMS7003;64740;34.694;33.088;2023-12-28T21:41:49;10.2;8;5.2
76043;PMS7003;64740;34.694;33.088;2023-12-28T21:46:57;9.4;8.2;5
76043;PMS7003;64740;34.694;33.088;2023-12-28T21:52:21;9.5;7.8;5.1
76043;PMS7003;64740;34.694;33.088;2023-12-28T21:56:57;10.1;8.5;5.1
76043;PMS7003;64740;34.694;33.088;2023-12-28T22:01:39;9.2;7.9;5.1
76043;PMS7003;64740;34.694;33.088;2023-12-28T22:06:49;7.6;6.9;4.2
76043;PMS7003;64740;34.694;33.088;2023-12-28T22:12:21;9.5;7.8;4.9
76043;PMS7003;64740;34.694;33.088;2023-12-28T22:17:03;9.8;8;5.2
76043;PMS7003;64740;34.694;33.088;2023-12-28T22:22:09;9.4;7.5;4.9
76043;PMS7003;64740;34.694;33.088;2023-12-28T22:26:51;8.7;7.2;4.6
76043;PMS7003;64740;34.694;33.088;2023-12-28T22:32:01;8.4;7.4;4.8
76043;PMS7003;64740;34.694;33.088;2023-12-28T22:37:21;9.1;7.8;4.6
76043;PMS7003;64740;34.694;33.088;2023-12-28T22:41:47;7.8;6.7;4.2
76043;PMS7003;64740;34.694;33.088;2023-12-28T22:46:53;6.6;5.6;3.2
76043;PMS7003;64740;34.694;33.088;2023-12-28T22:51:41;8.8;7.3;4.6
76043;PMS7003;64740;34.694;33.088;2023-12-28T22:57:20;9.3;7.5;4.5
76043;PMS7003;64740;34.694;33.088;2023-12-28T23:01:47;7.9;6.5;4.3
76043;PMS7003;64740;34.694;33.088;2023-12-28T23:06:45;9;7.8;4.8
76043;PMS7003;64740;34.694;33.088;2023-12-28T23:12:05;8.9;7.3;4.3
76043;PMS7003;64740;34.694;33.088;2023-12-28T23:16:39;9.1;7.5;4.5
76043;PMS7003;64740;34.694;33.088;2023-12-28T23:21:39;8.6;6.9;4.2
76043;PMS7003;64740;34.694;33.088;2023-12-28T23:26:52;7.6;6.8;3.9
76043;PMS7003;64740;34.694;33.088;2023-12-28T23:31:59;8.1;6.9;4.5
76043;PMS7003;64740;34.694;33.088;2023-12-28T23:36:47;8.2;6.9;4.5
76043;PMS7003;64740;34.694;33.088;2023-12-28T23:41:47;7.2;6.2;4.2
76043;PMS7003;64740;34.694;33.088;2023-12-28T23:47:23;9.4;7.6;5
76043;PMS7003;64740;34.694;33.088;2023-12-28T23:51:53;7.7;6.9;4.5
76043;PMS7003;64740;34.694;33.088;2023-12-28T23:56:39;8.6;7.2;5.1
